sensor_id;sensor_type;location;lat;lon;timestamp;temperature;humidity
68766;DHT22;55756;45.582;11.484;2023-02-28T00:00:27;10.10;39.00
68766;DHT22;55756;45.582;11.484;2023-02-28T00:02:53;10.10;38.70
68766;DHT22;55756;45.582;11.484;2023-02-28T00:05:22;10.00;39.10
68766;DHT22;55756;45.582;11.484;2023-02-28T00:07:49;10.00;39.20
68766;DHT22;55756;45.582;11.484;2023-02-28T00:10:33;10.00;39.20
68766;DHT22;55756;45.582;11.484;2023-02-28T00:13:05;10.00;39.10
68766;DHT22;55756;45.582;11.484;2023-02-28T00:15:31;10.00;39.10
68766;DHT22;55756;45.582;11.484;2023-02-28T00:17:57;10.00;39.10
68766;DHT22;55756;45.582;11.484;2023-02-28T00:20:24;10.00;39.30
68766;DHT22;55756;45.582;11.484;2023-02-28T00:22:52;10.00;39.00
68766;DHT22;55756;45.582;11.484;2023-02-28T00:25:20;10.00;38.70
68766;DHT22;55756;45.582;11.484;2023-02-28T00:27:47;10.00;38.80
68766;DHT22;55756;45.582;11.484;2023-02-28T00:30:21;10.10;38.50
68766;DHT22;55756;45.582;11.484;2023-02-28T00:32:47;10.00;38.60
68766;DHT22;55756;45.582;11.484;2023-02-28T00:35:13;10.10;38.60
68766;DHT22;55756;45.582;11.484;2023-02-28T00:37:40;10.00;38.80
68766;DHT22;55756;45.582;11.484;2023-02-28T00:40:07;10.00;38.80
68766;DHT22;55756;45.582;11.484;2023-02-28T00:42:34;9.90;38.90
68766;DHT22;55756;45.582;11.484;2023-02-28T00:45:00;9.90;38.90
68766;DHT22;55756;45.582;11.484;2023-02-28T00:47:26;9.90;39.10
68766;DHT22;55756;45.582;11.484;2023-02-28T00:49:52;9.90;39.20
68766;DHT22;55756;45.582;11.484;2023-02-28T00:52:18;9.90;38.90
68766;DHT22;55756;45.582;11.484;2023-02-28T00:54:46;10.00;38.70
68766;DHT22;55756;45.582;11.484;2023-02-28T00:57:14;10.00;38.80
68766;DHT22;55756;45.582;11.484;2023-02-28T00:59:39;10.00;38.80
68766;DHT22;55756;45.582;11.484;2023-02-28T01:02:06;10.00;39.00
68766;DHT22;55756;45.582;11.484;2023-02-28T01:04:31;10.00;38.80
68766;DHT22;55756;45.582;11.484;2023-02-28T01:07:00;9.90;38.90
68766;DHT22;55756;45.582;11.484;2023-02-28T01:09:27;10.00;38.80
68766;DHT22;55756;45.582;11.484;2023-02-28T01:11:53;10.00;38.80
68766;DHT22;55756;45.582;11.484;2023-02-28T01:14:19;9.90;38.90
68766;DHT22;55756;45.582;11.484;2023-02-28T01:16:48;9.90;39.30
68766;DHT22;55756;45.582;11.484;2023-02-28T01:19:14;9.90;39.20
68766;DHT22;55756;45.582;11.484;2023-02-28T01:21:39;9.80;39.30
68766;DHT22;55756;45.582;11.484;2023-02-28T01:24:06;9.90;39.20
68766;DHT22;55756;45.582;11.484;2023-02-28T01:26:34;9.90;39.30
68766;DHT22;55756;45.582;11.484;2023-02-28T01:29:00;9.80;39.50
68766;DHT22;55756;45.582;11.484;2023-02-28T01:31:26;9.80;39.70
68766;DHT22;55756;45.582;11.484;2023-02-28T01:33:52;9.90;39.50
68766;DHT22;55756;45.582;11.484;2023-02-28T01:36:20;9.90;39.70
68766;DHT22;55756;45.582;11.484;2023-02-28T01:38:46;9.90;39.40
68766;DHT22;55756;45.582;11.484;2023-02-28T01:41:21;9.90;39.50
68766;DHT22;55756;45.582;11.484;2023-02-28T01:43:58;9.90;39.70
68766;DHT22;55756;45.582;11.484;2023-02-28T01:46:24;9.90;39.70
68766;DHT22;55756;45.582;11.484;2023-02-28T01:49:03;9.80;39.70
68766;DHT22;55756;45.582;11.484;2023-02-28T01:54:10;9.80;39.80
68766;DHT22;55756;45.582;11.484;2023-02-28T01:56:44;9.80;39.60
68766;DHT22;55756;45.582;11.484;2023-02-28T01:59:17;9.90;39.20
68766;DHT22;55756;45.582;11.484;2023-02-28T02:01:45;9.90;39.00
68766;DHT22;55756;45.582;11.484;2023-02-28T02:04:11;9.80;39.00
68766;DHT22;55756;45.582;11.484;2023-02-28T02:06:46;9.90;39.10
68766;DHT22;55756;45.582;11.484;2023-02-28T02:09:13;9.90;38.90
68766;DHT22;55756;45.582;11.484;2023-02-28T02:11:41;9.90;38.80
68766;DHT22;55756;45.582;11.484;2023-02-28T02:14:36;9.90;39.20
68766;DHT22;55756;45.582;11.484;2023-02-28T02:17:24;9.80;39.30
68766;DHT22;55756;45.582;11.484;2023-02-28T02:31:58;9.70;39.40
68766;DHT22;55756;45.582;11.484;2023-02-28T02:39:47;9.80;39.10
68766;DHT22;55756;45.582;11.484;2023-02-28T02:42:19;9.70;39.20
68766;DHT22;55756;45.582;11.484;2023-02-28T02:44:53;9.70;39.40
68766;DHT22;55756;45.582;11.484;2023-02-28T02:47:24;9.70;39.40
68766;DHT22;55756;45.582;11.484;2023-02-28T02:49:55;9.70;39.70
68766;DHT22;55756;45.582;11.484;2023-02-28T02:52:29;9.80;39.60
68766;DHT22;55756;45.582;11.484;2023-02-28T02:54:58;9.80;39.50
68766;DHT22;55756;45.582;11.484;2023-02-28T02:57:34;9.80;39.50
68766;DHT22;55756;45.582;11.484;2023-02-28T03:00:03;9.80;39.50
68766;DHT22;55756;45.582;11.484;2023-02-28T03:02:30;9.80;39.60
68766;DHT22;55756;45.582;11.484;2023-02-28T03:05:02;9.80;39.60
68766;DHT22;55756;45.582;11.484;2023-02-28T03:07:29;9.90;39.60
68766;DHT22;55756;45.582;11.484;2023-02-28T03:09:57;9.90;39.70
68766;DHT22;55756;45.582;11.484;2023-02-28T03:12:36;9.90;39.70
68766;DHT22;55756;45.582;11.484;2023-02-28T03:15:23;9.90;39.80
68766;DHT22;55756;45.582;11.484;2023-02-28T03:19:14;9.90;40.10
68766;DHT22;55756;45.582;11.484;2023-02-28T03:21:27;10.00;40.00
68766;DHT22;55756;45.582;11.484;2023-02-28T03:26:29;9.80;39.10
68766;DHT22;55756;45.582;11.484;2023-02-28T03:34:29;9.90;38.90
68766;DHT22;55756;45.582;11.484;2023-02-28T03:37:02;9.90;38.80
68766;DHT22;55756;45.582;11.484;2023-02-28T03:39:44;9.90;38.50
68766;DHT22;55756;45.582;11.484;2023-02-28T03:42:17;9.90;38.60
68766;DHT22;55756;45.582;11.484;2023-02-28T03:44:48;9.90;38.60
68766;DHT22;55756;45.582;11.484;2023-02-28T03:47:19;9.80;38.90
68766;DHT22;55756;45.582;11.484;2023-02-28T03:50:07;9.90;38.80
68766;DHT22;55756;45.582;11.484;2023-02-28T03:52:41;10.00;38.40
68766;DHT22;55756;45.582;11.484;2023-02-28T03:55:11;10.00;38.40
68766;DHT22;55756;45.582;11.484;2023-02-28T03:57:56;10.00;38.30
68766;DHT22;55756;45.582;11.484;2023-02-28T04:00:37;9.90;38.40
68766;DHT22;55756;45.582;11.484;2023-02-28T04:03:04;9.90;38.40
68766;DHT22;55756;45.582;11.484;2023-02-28T04:05:30;9.90;38.50
68766;DHT22;55756;45.582;11.484;2023-02-28T04:08:07;9.90;38.40
68766;DHT22;55756;45.582;11.484;2023-02-28T04:10:33;9.80;38.30
68766;DHT22;55756;45.582;11.484;2023-02-28T04:12:59;9.80;38.60
68766;DHT22;55756;45.582;11.484;2023-02-28T04:15:24;9.80;38.40
68766;DHT22;55756;45.582;11.484;2023-02-28T04:17:52;9.90;38.50
68766;DHT22;55756;45.582;11.484;2023-02-28T04:20:18;9.80;38.80
68766;DHT22;55756;45.582;11.484;2023-02-28T04:22:44;9.80;38.80
68766;DHT22;55756;45.582;11.484;2023-02-28T04:25:10;9.70;39.10
68766;DHT22;55756;45.582;11.484;2023-02-28T04:27:35;9.70;39.20
68766;DHT22;55756;45.582;11.484;2023-02-28T04:30:02;9.70;39.20
68766;DHT22;55756;45.582;11.484;2023-02-28T04:32:28;9.60;39.50
68766;DHT22;55756;45.582;11.484;2023-02-28T04:34:53;9.60;39.60
68766;DHT22;55756;45.582;11.484;2023-02-28T04:37:19;9.60;39.80
68766;DHT22;55756;45.582;11.484;2023-02-28T04:39:45;9.60;39.60
68766;DHT22;55756;45.582;11.484;2023-02-28T04:42:11;9.70;39.30
68766;DHT22;55756;45.582;11.484;2023-02-28T04:44:37;9.70;39.30
68766;DHT22;55756;45.582;11.484;2023-02-28T04:47:03;9.70;39.40
68766;DHT22;55756;45.582;11.484;2023-02-28T04:49:29;9.70;39.40
68766;DHT22;55756;45.582;11.484;2023-02-28T04:51:55;9.70;39.40
68766;DHT22;55756;45.582;11.484;2023-02-28T04:54:21;9.70;39.40
68766;DHT22;55756;45.582;11.484;2023-02-28T04:56:47;9.80;39.50
68766;DHT22;55756;45.582;11.484;2023-02-28T04:59:15;9.80;39.50
68766;DHT22;55756;45.582;11.484;2023-02-28T05:01:40;9.80;39.50
68766;DHT22;55756;45.582;11.484;2023-02-28T05:04:10;9.70;39.50
68766;DHT22;55756;45.582;11.484;2023-02-28T05:06:36;9.70;39.30
68766;DHT22;55756;45.582;11.484;2023-02-28T05:09:02;9.70;39.30
68766;DHT22;55756;45.582;11.484;2023-02-28T05:11:30;9.70;39.10
68766;DHT22;55756;45.582;11.484;2023-02-28T05:14:01;9.70;38.90
68766;DHT22;55756;45.582;11.484;2023-02-28T05:16:27;9.60;39.20
68766;DHT22;55756;45.582;11.484;2023-02-28T05:18:56;9.50;39.30
68766;DHT22;55756;45.582;11.484;2023-02-28T05:21:30;9.50;39.20
68766;DHT22;55756;45.582;11.484;2023-02-28T05:24:01;9.60;39.00
68766;DHT22;55756;45.582;11.484;2023-02-28T05:26:27;9.60;38.90
68766;DHT22;55756;45.582;11.484;2023-02-28T05:28:54;9.60;39.00
68766;DHT22;55756;45.582;11.484;2023-02-28T05:31:20;9.50;38.90
68766;DHT22;55756;45.582;11.484;2023-02-28T05:33:46;9.50;39.00
68766;DHT22;55756;45.582;11.484;2023-02-28T05:36:12;9.40;39.20
68766;DHT22;55756;45.582;11.484;2023-02-28T05:38:38;9.40;39.10
68766;DHT22;55756;45.582;11.484;2023-02-28T05:41:07;9.40;39.10
68766;DHT22;55756;45.582;11.484;2023-02-28T05:43:33;9.40;39.20
68766;DHT22;55756;45.582;11.484;2023-02-28T05:46:02;9.40;39.40
68766;DHT22;55756;45.582;11.484;2023-02-28T05:48:28;9.40;39.40
68766;DHT22;55756;45.582;11.484;2023-02-28T05:50:56;9.40;39.70
68766;DHT22;55756;45.582;11.484;2023-02-28T05:53:22;9.40;39.80
68766;DHT22;55756;45.582;11.484;2023-02-28T05:55:48;9.50;39.90
68766;DHT22;55756;45.582;11.484;2023-02-28T05:58:14;9.50;40.00
68766;DHT22;55756;45.582;11.484;2023-02-28T06:00:39;9.50;39.80
68766;DHT22;55756;45.582;11.484;2023-02-28T06:03:05;9.40;39.90
68766;DHT22;55756;45.582;11.484;2023-02-28T06:05:31;9.40;40.10
68766;DHT22;55756;45.582;11.484;2023-02-28T06:07:56;9.50;40.20
68766;DHT22;55756;45.582;11.484;2023-02-28T06:10:22;9.50;40.10
68766;DHT22;55756;45.582;11.484;2023-02-28T06:12:48;9.50;40.00
68766;DHT22;55756;45.582;11.484;2023-02-28T06:15:14;9.40;39.90
68766;DHT22;55756;45.582;11.484;2023-02-28T06:17:41;9.50;39.60
68766;DHT22;55756;45.582;11.484;2023-02-28T06:20:08;9.40;39.70
68766;DHT22;55756;45.582;11.484;2023-02-28T06:22:37;9.40;39.60
68766;DHT22;55756;45.582;11.484;2023-02-28T06:25:04;9.50;39.80
68766;DHT22;55756;45.582;11.484;2023-02-28T06:27:32;9.50;39.90
68766;DHT22;55756;45.582;11.484;2023-02-28T06:29:57;9.60;40.00
68766;DHT22;55756;45.582;11.484;2023-02-28T06:32:23;9.60;39.80
68766;DHT22;55756;45.582;11.484;2023-02-28T06:34:50;9.50;39.70
68766;DHT22;55756;45.582;11.484;2023-02-28T06:37:17;9.60;40.10
68766;DHT22;55756;45.582;11.484;2023-02-28T06:39:44;9.60;39.90
68766;DHT22;55756;45.582;11.484;2023-02-28T06:42:11;9.70;40.10
68766;DHT22;55756;45.582;11.484;2023-02-28T06:44:36;9.60;40.10
68766;DHT22;55756;45.582;11.484;2023-02-28T06:47:05;9.60;40.10
68766;DHT22;55756;45.582;11.484;2023-02-28T06:49:33;9.60;40.10
68766;DHT22;55756;45.582;11.484;2023-02-28T06:51:59;9.60;40.20
68766;DHT22;55756;45.582;11.484;2023-02-28T06:54:25;9.60;40.10
68766;DHT22;55756;45.582;11.484;2023-02-28T06:56:51;9.60;40.20
68766;DHT22;55756;45.582;11.484;2023-02-28T06:59:17;9.60;40.10
68766;DHT22;55756;45.582;11.484;2023-02-28T07:01:43;9.60;40.40
68766;DHT22;55756;45.582;11.484;2023-02-28T07:04:08;9.70;40.60
68766;DHT22;55756;45.582;11.484;2023-02-28T07:06:34;9.60;40.70
68766;DHT22;55756;45.582;11.484;2023-02-28T07:09:00;9.70;40.70
68766;DHT22;55756;45.582;11.484;2023-02-28T07:11:27;9.70;40.60
68766;DHT22;55756;45.582;11.484;2023-02-28T07:13:54;9.70;40.60
68766;DHT22;55756;45.582;11.484;2023-02-28T07:16:21;9.80;40.50
68766;DHT22;55756;45.582;11.484;2023-02-28T07:18:47;9.80;40.50
68766;DHT22;55756;45.582;11.484;2023-02-28T07:21:13;9.80;40.50
68766;DHT22;55756;45.582;11.484;2023-02-28T07:23:40;9.80;40.50
68766;DHT22;55756;45.582;11.484;2023-02-28T07:26:10;9.90;40.50
68766;DHT22;55756;45.582;11.484;2023-02-28T07:28:47;9.90;40.50
68766;DHT22;55756;45.582;11.484;2023-02-28T07:31:13;9.90;40.80
68766;DHT22;55756;45.582;11.484;2023-02-28T07:33:40;10.00;40.40
68766;DHT22;55756;45.582;11.484;2023-02-28T07:36:08;9.90;41.10
68766;DHT22;55756;45.582;11.484;2023-02-28T07:38:37;10.00;40.80
68766;DHT22;55756;45.582;11.484;2023-02-28T07:41:03;10.00;40.60
68766;DHT22;55756;45.582;11.484;2023-02-28T07:43:32;10.10;40.70
68766;DHT22;55756;45.582;11.484;2023-02-28T07:46:09;10.10;40.40
68766;DHT22;55756;45.582;11.484;2023-02-28T07:48:35;10.10;40.50
68766;DHT22;55756;45.582;11.484;2023-02-28T07:51:01;10.10;40.50
68766;DHT22;55756;45.582;11.484;2023-02-28T07:53:28;10.20;40.60
68766;DHT22;55756;45.582;11.484;2023-02-28T07:55:58;10.10;40.60
68766;DHT22;55756;45.582;11.484;2023-02-28T07:58:26;10.20;40.50
68766;DHT22;55756;45.582;11.484;2023-02-28T08:00:52;10.20;40.60
68766;DHT22;55756;45.582;11.484;2023-02-28T08:03:19;10.20;41.20
68766;DHT22;55756;45.582;11.484;2023-02-28T08:05:46;10.20;40.90
68766;DHT22;55756;45.582;11.484;2023-02-28T08:08:12;10.20;40.50
68766;DHT22;55756;45.582;11.484;2023-02-28T08:10:37;10.20;40.80
68766;DHT22;55756;45.582;11.484;2023-02-28T08:13:03;10.30;40.60
68766;DHT22;55756;45.582;11.484;2023-02-28T08:15:29;10.40;40.40
68766;DHT22;55756;45.582;11.484;2023-02-28T08:17:55;10.40;40.50
68766;DHT22;55756;45.582;11.484;2023-02-28T08:20:24;10.40;39.60
68766;DHT22;55756;45.582;11.484;2023-02-28T08:22:50;10.40;39.50
68766;DHT22;55756;45.582;11.484;2023-02-28T08:25:15;10.50;39.30
68766;DHT22;55756;45.582;11.484;2023-02-28T08:27:41;10.50;39.30
68766;DHT22;55756;45.582;11.484;2023-02-28T08:30:10;10.50;39.00
68766;DHT22;55756;45.582;11.484;2023-02-28T08:32:37;10.60;39.30
68766;DHT22;55756;45.582;11.484;2023-02-28T08:35:04;10.70;39.20
68766;DHT22;55756;45.582;11.484;2023-02-28T08:37:29;10.70;39.20
68766;DHT22;55756;45.582;11.484;2023-02-28T08:39:57;10.70;39.00
68766;DHT22;55756;45.582;11.484;2023-02-28T08:42:23;10.80;39.10
68766;DHT22;55756;45.582;11.484;2023-02-28T08:44:49;10.90;39.20
68766;DHT22;55756;45.582;11.484;2023-02-28T08:47:15;10.90;38.80
68766;DHT22;55756;45.582;11.484;2023-02-28T08:49:47;10.90;38.80
68766;DHT22;55756;45.582;11.484;2023-02-28T08:52:13;10.90;38.00
68766;DHT22;55756;45.582;11.484;2023-02-28T08:54:39;10.90;37.90
68766;DHT22;55756;45.582;11.484;2023-02-28T08:57:05;11.00;37.90
68766;DHT22;55756;45.582;11.484;2023-02-28T08:59:32;11.00;37.90
68766;DHT22;55756;45.582;11.484;2023-02-28T09:01:58;11.10;37.60
68766;DHT22;55756;45.582;11.484;2023-02-28T09:04:24;11.10;37.40
68766;DHT22;55756;45.582;11.484;2023-02-28T09:06:50;11.20;37.20
68766;DHT22;55756;45.582;11.484;2023-02-28T09:09:16;11.20;36.90
68766;DHT22;55756;45.582;11.484;2023-02-28T09:11:42;11.20;37.30
68766;DHT22;55756;45.582;11.484;2023-02-28T09:14:08;11.20;37.50
68766;DHT22;55756;45.582;11.484;2023-02-28T09:16:34;11.20;37.90
68766;DHT22;55756;45.582;11.484;2023-02-28T09:19:00;11.30;37.30
68766;DHT22;55756;45.582;11.484;2023-02-28T09:21:27;11.30;37.60
68766;DHT22;55756;45.582;11.484;2023-02-28T09:23:53;11.30;36.60
68766;DHT22;55756;45.582;11.484;2023-02-28T09:26:21;11.40;36.50
68766;DHT22;55756;45.582;11.484;2023-02-28T09:28:48;11.40;36.50
68766;DHT22;55756;45.582;11.484;2023-02-28T09:31:16;11.40;36.20
68766;DHT22;55756;45.582;11.484;2023-02-28T09:33:42;11.50;36.20
68766;DHT22;55756;45.582;11.484;2023-02-28T09:36:08;11.50;36.40
68766;DHT22;55756;45.582;11.484;2023-02-28T09:38:34;11.50;36.00
68766;DHT22;55756;45.582;11.484;2023-02-28T09:41:10;11.50;36.90
68766;DHT22;55756;45.582;11.484;2023-02-28T09:43:40;11.60;36.60
68766;DHT22;55756;45.582;11.484;2023-02-28T09:48:52;11.70;35.90
68766;DHT22;55756;45.582;11.484;2023-02-28T09:51:49;11.80;36.20
68766;DHT22;55756;45.582;11.484;2023-02-28T09:54:21;11.80;35.60
68766;DHT22;55756;45.582;11.484;2023-02-28T09:59:37;11.80;36.00
68766;DHT22;55756;45.582;11.484;2023-02-28T10:02:38;11.90;36.60
68766;DHT22;55756;45.582;11.484;2023-02-28T10:05:15;12.00;36.60
68766;DHT22;55756;45.582;11.484;2023-02-28T10:10:43;12.10;35.50
68766;DHT22;55756;45.582;11.484;2023-02-28T10:15:45;12.20;36.00
68766;DHT22;55756;45.582;11.484;2023-02-28T10:18:15;12.20;35.70
68766;DHT22;55756;45.582;11.484;2023-02-28T10:20:46;12.20;35.70
68766;DHT22;55756;45.582;11.484;2023-02-28T10:23:25;12.20;35.80
68766;DHT22;55756;45.582;11.484;2023-02-28T10:26:00;12.30;35.50
68766;DHT22;55756;45.582;11.484;2023-02-28T10:28:28;12.20;36.00
68766;DHT22;55756;45.582;11.484;2023-02-28T10:30:55;12.30;36.20
68766;DHT22;55756;45.582;11.484;2023-02-28T10:33:34;12.30;35.90
68766;DHT22;55756;45.582;11.484;2023-02-28T10:36:01;12.40;36.30
68766;DHT22;55756;45.582;11.484;2023-02-28T10:38:33;12.40;36.30
68766;DHT22;55756;45.582;11.484;2023-02-28T10:41:28;12.40;35.90
68766;DHT22;55756;45.582;11.484;2023-02-28T10:43:53;12.50;36.30
68766;DHT22;55756;45.582;11.484;2023-02-28T10:46:39;12.50;35.90
68766;DHT22;55756;45.582;11.484;2023-02-28T10:49:13;12.60;35.60
68766;DHT22;55756;45.582;11.484;2023-02-28T10:51:42;12.60;35.50
68766;DHT22;55756;45.582;11.484;2023-02-28T10:54:37;12.60;35.50
68766;DHT22;55756;45.582;11.484;2023-02-28T10:57:17;12.60;35.20
68766;DHT22;55756;45.582;11.484;2023-02-28T10:59:43;12.60;35.40
68766;DHT22;55756;45.582;11.484;2023-02-28T11:02:32;12.60;36.00
68766;DHT22;55756;45.582;11.484;2023-02-28T11:04:58;12.70;36.40
68766;DHT22;55756;45.582;11.484;2023-02-28T11:07:26;12.70;36.00
68766;DHT22;55756;45.582;11.484;2023-02-28T11:09:57;12.70;35.90
68766;DHT22;55756;45.582;11.484;2023-02-28T11:12:30;12.70;35.20
68766;DHT22;55756;45.582;11.484;2023-02-28T11:15:00;12.70;35.50
68766;DHT22;55756;45.582;11.484;2023-02-28T11:17:30;12.70;36.20
68766;DHT22;55756;45.582;11.484;2023-02-28T11:20:02;12.70;36.20
68766;DHT22;55756;45.582;11.484;2023-02-28T11:22:32;12.80;36.00
68766;DHT22;55756;45.582;11.484;2023-02-28T11:25:13;12.90;35.70
68766;DHT22;55756;45.582;11.484;2023-02-28T11:27:51;12.90;36.10
68766;DHT22;55756;45.582;11.484;2023-02-28T11:30:33;12.90;36.50
68766;DHT22;55756;45.582;11.484;2023-02-28T11:33:22;13.00;36.00
68766;DHT22;55756;45.582;11.484;2023-02-28T11:35:50;13.00;35.50
68766;DHT22;55756;45.582;11.484;2023-02-28T11:38:16;13.10;35.30
68766;DHT22;55756;45.582;11.484;2023-02-28T11:43:26;13.20;35.40
68766;DHT22;55756;45.582;11.484;2023-02-28T11:46:31;13.20;35.50
68766;DHT22;55756;45.582;11.484;2023-02-28T11:49:21;13.20;35.50
68766;DHT22;55756;45.582;11.484;2023-02-28T11:52:06;13.30;35.40
68766;DHT22;55756;45.582;11.484;2023-02-28T11:57:35;13.20;35.10
68766;DHT22;55756;45.582;11.484;2023-02-28T12:05:46;13.40;35.80
68766;DHT22;55756;45.582;11.484;2023-02-28T12:11:07;13.40;35.70
68766;DHT22;55756;45.582;11.484;2023-02-28T12:27:37;13.40;35.50
68766;DHT22;55756;45.582;11.484;2023-02-28T12:30:18;13.50;35.50
68766;DHT22;55756;45.582;11.484;2023-02-28T12:32:57;13.50;35.00
68766;DHT22;55756;45.582;11.484;2023-02-28T12:35:36;13.50;35.50
68766;DHT22;55756;45.582;11.484;2023-02-28T12:38:09;13.60;34.60
68766;DHT22;55756;45.582;11.484;2023-02-28T12:41:08;13.70;34.50
68766;DHT22;55756;45.582;11.484;2023-02-28T12:43:40;13.70;34.40
68766;DHT22;55756;45.582;11.484;2023-02-28T12:46:12;13.70;34.90
68766;DHT22;55756;45.582;11.484;2023-02-28T12:48:44;13.80;35.00
68766;DHT22;55756;45.582;11.484;2023-02-28T12:51:13;13.90;35.10
68766;DHT22;55756;45.582;11.484;2023-02-28T12:54:00;13.90;34.80
68766;DHT22;55756;45.582;11.484;2023-02-28T12:56:47;13.90;34.70
68766;DHT22;55756;45.582;11.484;2023-02-28T12:59:38;14.00;35.30
68766;DHT22;55756;45.582;11.484;2023-02-28T13:10:23;14.00;34.90
68766;DHT22;55756;45.582;11.484;2023-02-28T13:12:51;14.00;34.70
68766;DHT22;55756;45.582;11.484;2023-02-28T13:15:19;14.00;34.80
68766;DHT22;55756;45.582;11.484;2023-02-28T13:17:53;14.00;35.00
68766;DHT22;55756;45.582;11.484;2023-02-28T13:20:23;14.00;34.90
68766;DHT22;55756;45.582;11.484;2023-02-28T13:22:52;13.90;35.60
68766;DHT22;55756;45.582;11.484;2023-02-28T13:28:07;14.00;35.90
68766;DHT22;55756;45.582;11.484;2023-02-28T13:35:46;14.00;35.60
68766;DHT22;55756;45.582;11.484;2023-02-28T13:38:25;14.10;35.80
68766;DHT22;55756;45.582;11.484;2023-02-28T13:41:40;14.10;35.50
68766;DHT22;55756;45.582;11.484;2023-02-28T13:44:19;14.10;35.40
68766;DHT22;55756;45.582;11.484;2023-02-28T13:52:02;14.20;35.90
68766;DHT22;55756;45.582;11.484;2023-02-28T13:57:41;14.20;34.90
68766;DHT22;55756;45.582;11.484;2023-02-28T14:03:12;14.20;36.00
68766;DHT22;55756;45.582;11.484;2023-02-28T14:05:40;14.20;35.90
68766;DHT22;55756;45.582;11.484;2023-02-28T14:08:17;14.20;36.00
68766;DHT22;55756;45.582;11.484;2023-02-28T14:10:51;14.20;35.20
68766;DHT22;55756;45.582;11.484;2023-02-28T14:13:43;14.20;35.30
68766;DHT22;55756;45.582;11.484;2023-02-28T14:16:24;14.20;35.90
68766;DHT22;55756;45.582;11.484;2023-02-28T14:18:58;14.20;35.90
68766;DHT22;55756;45.582;11.484;2023-02-28T14:21:31;14.20;36.00
68766;DHT22;55756;45.582;11.484;2023-02-28T14:24:41;14.20;36.20
68766;DHT22;55756;45.582;11.484;2023-02-28T14:32:51;14.20;36.20
68766;DHT22;55756;45.582;11.484;2023-02-28T14:37:51;14.20;36.50
68766;DHT22;55756;45.582;11.484;2023-02-28T14:40:33;14.20;36.40
68766;DHT22;55756;45.582;11.484;2023-02-28T14:43:05;14.20;36.00
68766;DHT22;55756;45.582;11.484;2023-02-28T14:45:34;14.20;35.40
68766;DHT22;55756;45.582;11.484;2023-02-28T14:48:02;14.10;35.80
68766;DHT22;55756;45.582;11.484;2023-02-28T14:50:36;14.20;36.10
68766;DHT22;55756;45.582;11.484;2023-02-28T14:53:03;14.20;36.00
68766;DHT22;55756;45.582;11.484;2023-02-28T14:55:32;14.20;36.00
68766;DHT22;55756;45.582;11.484;2023-02-28T14:58:04;14.20;36.30
68766;DHT22;55756;45.582;11.484;2023-02-28T15:00:39;14.20;36.50
68766;DHT22;55756;45.582;11.484;2023-02-28T15:03:35;14.30;36.00
68766;DHT22;55756;45.582;11.484;2023-02-28T15:06:05;14.30;35.80
68766;DHT22;55756;45.582;11.484;2023-02-28T15:08:32;14.30;35.50
68766;DHT22;55756;45.582;11.484;2023-02-28T15:11:06;14.30;35.60
68766;DHT22;55756;45.582;11.484;2023-02-28T15:13:43;14.30;35.60
68766;DHT22;55756;45.582;11.484;2023-02-28T15:16:23;14.30;35.90
68766;DHT22;55756;45.582;11.484;2023-02-28T15:19:02;14.20;35.50
68766;DHT22;55756;45.582;11.484;2023-02-28T15:21:34;14.20;35.40
68766;DHT22;55756;45.582;11.484;2023-02-28T15:26:41;14.20;35.10
68766;DHT22;55756;45.582;11.484;2023-02-28T15:29:13;14.20;35.50
68766;DHT22;55756;45.582;11.484;2023-02-28T15:31:43;14.10;35.40
68766;DHT22;55756;45.582;11.484;2023-02-28T15:34:37;14.10;35.70
68766;DHT22;55756;45.582;11.484;2023-02-28T15:39:51;14.10;36.00
68766;DHT22;55756;45.582;11.484;2023-02-28T15:42:22;14.10;36.00
68766;DHT22;55756;45.582;11.484;2023-02-28T15:44:49;14.10;35.50
68766;DHT22;55756;45.582;11.484;2023-02-28T15:47:23;14.10;35.90
68766;DHT22;55756;45.582;11.484;2023-02-28T15:49:58;14.10;36.00
68766;DHT22;55756;45.582;11.484;2023-02-28T15:52:42;14.10;36.20
68766;DHT22;55756;45.582;11.484;2023-02-28T15:57:42;14.00;36.40
68766;DHT22;55756;45.582;11.484;2023-02-28T16:00:19;14.00;36.40
68766;DHT22;55756;45.582;11.484;2023-02-28T16:02:45;14.00;36.40
68766;DHT22;55756;45.582;11.484;2023-02-28T16:07:39;13.90;36.70
68766;DHT22;55756;45.582;11.484;2023-02-28T16:10:10;13.90;36.80
68766;DHT22;55756;45.582;11.484;2023-02-28T16:12:38;13.90;36.70
68766;DHT22;55756;45.582;11.484;2023-02-28T16:15:22;13.90;36.90
68766;DHT22;55756;45.582;11.484;2023-02-28T16:17:49;13.80;37.20
68766;DHT22;55756;45.582;11.484;2023-02-28T16:20:26;13.80;37.30
68766;DHT22;55756;45.582;11.484;2023-02-28T16:22:53;13.70;37.20
68766;DHT22;55756;45.582;11.484;2023-02-28T16:25:26;13.70;37.30
68766;DHT22;55756;45.582;11.484;2023-02-28T16:27:54;13.70;37.20
68766;DHT22;55756;45.582;11.484;2023-02-28T16:30:23;13.70;37.30
68766;DHT22;55756;45.582;11.484;2023-02-28T16:32:50;13.60;37.60
68766;DHT22;55756;45.582;11.484;2023-02-28T16:35:17;13.50;37.50
68766;DHT22;55756;45.582;11.484;2023-02-28T16:37:44;13.50;37.60
68766;DHT22;55756;45.582;11.484;2023-02-28T16:40:15;13.50;37.90
68766;DHT22;55756;45.582;11.484;2023-02-28T16:42:42;13.40;38.10
68766;DHT22;55756;45.582;11.484;2023-02-28T16:45:24;13.40;38.00
68766;DHT22;55756;45.582;11.484;2023-02-28T16:47:51;13.40;38.10
68766;DHT22;55756;45.582;11.484;2023-02-28T16:50:28;13.30;38.50
68766;DHT22;55756;45.582;11.484;2023-02-28T16:52:55;13.30;38.60
68766;DHT22;55756;45.582;11.484;2023-02-28T16:55:22;13.20;39.10
68766;DHT22;55756;45.582;11.484;2023-02-28T16:57:54;13.10;39.10
68766;DHT22;55756;45.582;11.484;2023-02-28T17:00:20;13.10;39.10
68766;DHT22;55756;45.582;11.484;2023-02-28T17:02:46;13.10;39.50
68766;DHT22;55756;45.582;11.484;2023-02-28T17:05:13;13.10;39.80
68766;DHT22;55756;45.582;11.484;2023-02-28T17:07:40;13.10;40.20
68766;DHT22;55756;45.582;11.484;2023-02-28T17:10:18;13.00;40.70
68766;DHT22;55756;45.582;11.484;2023-02-28T17:12:44;13.00;41.10
68766;DHT22;55756;45.582;11.484;2023-02-28T17:15:12;13.00;41.40
68766;DHT22;55756;45.582;11.484;2023-02-28T17:17:41;13.00;41.70
68766;DHT22;55756;45.582;11.484;2023-02-28T17:20:16;12.90;42.00
68766;DHT22;55756;45.582;11.484;2023-02-28T17:22:42;13.00;42.20
68766;DHT22;55756;45.582;11.484;2023-02-28T17:25:10;12.90;42.30
68766;DHT22;55756;45.582;11.484;2023-02-28T17:27:36;12.90;42.40
68766;DHT22;55756;45.582;11.484;2023-02-28T17:32:35;12.90;42.60
68766;DHT22;55756;45.582;11.484;2023-02-28T17:35:08;12.90;42.80
68766;DHT22;55756;45.582;11.484;2023-02-28T17:37:34;12.80;43.00
68766;DHT22;55756;45.582;11.484;2023-02-28T17:40:00;12.70;43.20